ETSH

Holzdorf Airport

Germany
METAR ETSH 200620Z 06004KT 5000 BR SCT160 SCT210 M05/M06 Q1018 WHT BLU TEMPO WHT
Observed Flight Rules
Feb-20 @ 06:20 UTC (57 minutes ago) Marginal Visual Flight Rules
Wind Visibility Clouds Conditions
60° at 4 knots 5,005 meters
  • Scattered at 16,000' AGL
  • Scattered at 21,000' AGL
  • Mist
Temperatures Readings
Current -5°C / 23°F
Dewpoint -6°C / 21°F
Humidity 93%
Altimeter 30.06" Hg
Pressure 1018 hPa
Elevation 79
METAR ETSH 200620Z 06004KT 5000 BR SCT160 SCT210 M05/M06 Q1018 WHT BLU TEMPO WHT
Observed Flight Rules
Feb-20 @ 06:20 UTC
(57 minutes ago)
MVFR
Wind Visibility
60° at 4 knots 5,005 meters
Clouds
  • Scattered at 16,000' AGL
  • Scattered at 21,000' AGL
Conditions
  • Mist
Temperature Dewpoint
-5°C / 23°F -6°C / 21°F
Humidity Altimeter Pressure
93% 30.06" Hg 1018 hPa